Time;durP1;ratioP1;P1;durP2;ratioP2;P2;SDS_P1;SDS_P2;PMS_P1;PMS_P2;Temp;Humidity;BMP_temperature;BMP_pressure;BME280_temperature;BME280_humidity;BME280_pressure;Samples;Min_cycle;Max_cycle;Signal;HPM_P1;HPM_P2
2023/06/28 00:09:23;;;;;;;5.15;2.75;;;;;;;28.18;49.22;100568.41;21077498;28;20044;-56
2023/06/28 00:19:27;;;;;;;5.00;2.30;;;;;;;28.17;49.51;100561.09;21077247;28;20051;-58
2023/06/28 00:29:31;;;;;;;4.38;2.55;;;;;;;28.17;49.43;100572.34;21076206;28;20082;-58
2023/06/28 00:39:34;;;;;;;4.78;2.40;;;;;;;28.13;49.43;100571.38;21086035;28;20047;-59
2023/06/28 00:49:37;;;;;;;5.63;2.05;;;;;;;28.19;49.47;100603.81;21103660;28;20032;-58
2023/06/28 00:59:39;;;;;;;3.45;2.15;;;;;;;28.15;49.40;100602.81;21103137;28;20467;-59
2023/06/28 01:09:41;;;;;;;4.50;2.05;;;;;;;28.20;49.39;100627.94;21103158;28;20116;-59
2023/06/28 01:19:42;;;;;;;4.65;1.92;;;;;;;28.15;49.36;100618.88;21102982;28;20043;-58
2023/06/28 01:29:44;;;;;;;2.33;1.60;;;;;;;28.08;49.31;100622.22;21102204;28;20044;-58
2023/06/28 01:39:46;;;;;;;2.55;1.50;;;;;;;28.21;49.34;100652.09;21102180;28;20043;-58
2023/06/28 01:49:48;;;;;;;3.25;1.70;;;;;;;28.19;49.37;100657.25;21097385;28;20044;-59
2023/06/28 01:59:49;;;;;;;2.50;1.60;;;;;;;28.22;49.40;100664.19;21088348;28;20540;-60
2023/06/28 02:09:51;;;;;;;2.13;1.30;;;;;;;28.20;49.26;100650.47;21086499;28;20036;-58
2023/06/28 02:19:52;;;;;;;1.70;1.27;;;;;;;28.20;49.32;100633.59;21086235;28;20040;-59
2023/06/28 02:29:56;;;;;;;1.30;1.20;;;;;;;28.17;49.19;100610.91;21085574;28;20040;-58
2023/06/28 02:39:57;;;;;;;3.05;1.35;;;;;;;28.21;49.36;100623.97;21084706;28;20551;-58
2023/06/28 02:50:04;;;;;;;1.80;1.13;;;;;;;28.23;49.28;100604.78;21085115;28;20180;-59
2023/06/28 03:00:06;;;;;;;1.48;1.20;;;;;;;28.20;49.25;100622.31;21083288;28;20040;-58
2023/06/28 03:10:07;;;;;;;2.10;1.25;;;;;;;28.23;49.29;100626.47;21082967;28;20387;-58
2023/06/28 03:20:09;;;;;;;1.30;1.20;;;;;;;28.23;49.15;100640.53;21082231;28;20066;-59
2023/06/28 03:30:11;;;;;;;1.27;1.13;;;;;;;28.23;49.08;100648.97;21080546;28;20032;-59
2023/06/28 03:40:14;;;;;;;1.60;1.00;;;;;;;28.23;49.23;100663.88;21079680;28;20040;-58
2023/06/28 03:50:16;;;;;;;1.27;0.80;;;;;;;28.19;49.27;100688.19;21079075;28;20044;-59
2023/06/28 04:00:18;;;;;;;1.40;1.13;;;;;;;28.24;49.07;100690.00;21078366;28;20120;-58
2023/06/28 04:10:19;;;;;;;1.75;1.48;;;;;;;28.24;49.28;100675.94;21077235;28;20040;-59
2023/06/28 04:20:26;;;;;;;1.15;1.00;;;;;;;28.22;49.07;100656.56;21076712;28;20058;-59
2023/06/28 04:30:27;;;;;;;1.10;1.00;;;;;;;28.24;48.97;100651.44;21076532;28;20039;-61
2023/06/28 04:40:32;;;;;;;0.85;0.82;;;;;;;28.24;49.03;100628.94;21076442;28;20036;-58
2023/06/28 04:50:36;;;;;;;1.30;0.88;;;;;;;28.24;49.07;100616.84;21076170;28;20059;-59
2023/06/28 05:00:37;;;;;;;1.27;1.17;;;;;;;28.24;49.00;100640.19;21075896;28;20058;-58
2023/06/28 05:10:39;;;;;;;1.52;1.17;;;;;;;28.19;49.09;100654.44;21075941;28;20040;-59
2023/06/28 05:20:40;;;;;;;1.40;1.30;;;;;;;28.22;48.89;100661.38;21075077;28;20407;-59
2023/06/28 05:30:43;;;;;;;1.48;1.35;;;;;;;28.20;48.82;100650.47;21086362;28;20040;-58
2023/06/28 05:40:44;;;;;;;1.30;1.20;;;;;;;28.23;48.81;100638.53;21089550;28;20032;-58
2023/06/28 05:50:46;;;;;;;1.10;0.90;;;;;;;28.22;48.94;100628.44;21088403;28;20032;-57
2023/06/28 06:00:47;;;;;;;1.05;1.05;;;;;;;28.10;48.98;100617.09;21087937;28;20467;-58
2023/06/28 06:10:48;;;;;;;1.05;0.88;;;;;;;28.23;49.08;100621.66;21086850;28;20073;-58
2023/06/28 06:20:50;;;;;;;0.88;0.88;;;;;;;28.19;49.19;100608.59;21086513;28;20048;-59
2023/06/28 06:30:51;;;;;;;1.40;1.00;;;;;;;28.22;48.89;100607.91;21085641;28;20043;-58
2023/06/28 06:40:53;;;;;;;0.98;0.82;;;;;;;28.22;49.02;100614.34;21084106;28;20036;-59
2023/06/28 06:50:54;;;;;;;1.42;1.20;;;;;;;28.21;49.09;100620.34;21083520;28;20052;-58
2023/06/28 07:00:56;;;;;;;1.35;1.25;;;;;;;28.17;48.80;100614.56;21083202;28;20043;-58
2023/06/28 07:10:57;;;;;;;1.10;1.00;;;;;;;28.21;49.05;100617.53;21082342;28;20101;-58
2023/06/28 07:21:06;;;;;;;0.90;0.90;;;;;;;28.19;48.90;100615.06;21081421;28;20048;-58
2023/06/28 07:31:08;;;;;;;1.50;0.90;;;;;;;28.17;48.90;100630.59;21080555;28;20391;-58
2023/06/28 07:41:09;;;;;;;0.98;0.95;;;;;;;28.19;49.07;100631.94;21079492;28;20036;-58
2023/06/28 07:51:10;;;;;;;0.90;0.90;;;;;;;28.19;48.78;100631.94;21078189;28;20036;-58
2023/06/28 08:01:14;;;;;;;1.10;1.02;;;;;;;28.03;48.75;100611.97;21078169;28;20089;-58
2023/06/28 08:11:16;;;;;;;0.98;0.90;;;;;;;28.17;49.00;100624.97;21077888;28;20051;-58
2023/06/28 08:21:20;;;;;;;0.98;0.93;;;;;;;28.16;48.84;100626.97;21077089;28;20040;-58
2023/06/28 08:31:21;;;;;;;0.95;0.85;;;;;;;28.09;48.85;100615.44;21076611;28;20040;-59
2023/06/28 08:41:24;;;;;;;1.38;1.08;;;;;;;28.16;49.08;100637.41;21074539;28;20032;-59
2023/06/28 08:51:25;;;;;;;1.00;0.82;;;;;;;28.07;48.87;100634.63;21075683;28;20402;-60
2023/06/28 09:01:28;;;;;;;0.93;0.90;;;;;;;28.12;48.97;100649.31;21082338;28;20036;-59
2023/06/28 09:11:30;;;;;;;1.10;1.00;;;;;;;28.14;48.89;100653.81;21091201;28;20044;-58
2023/06/28 09:21:34;;;;;;;1.20;1.15;;;;;;;28.10;48.83;100667.72;21091198;28;20413;-60
2023/06/28 09:31:58;;;;;;;1.30;1.20;;;;;;;28.06;48.80;100678.00;21090105;28;20047;-59
2023/06/28 09:42:02;;;;;;;1.20;1.10;;;;;;;28.03;48.72;100684.28;21082522;28;20372;-59
2023/06/28 09:52:06;;;;;;;1.30;1.20;;;;;;;28.10;48.77;100723.97;21087416;28;20028;-56
2023/06/28 10:02:08;;;;;;;1.30;1.17;;;;;;;27.97;48.96;100713.75;21087881;28;20431;-58
2023/06/28 10:12:18;;;;;;;1.40;1.30;;;;;;;27.95;48.84;100727.31;21085922;28;20040;-59
2023/06/28 10:22:20;;;;;;;1.30;1.10;;;;;;;28.08;49.04;100734.72;21086421;28;20028;-59
2023/06/28 10:32:27;;;;;;;1.33;1.20;;;;;;;28.08;48.84;100743.16;21085218;28;20074;-59
2023/06/28 10:42:36;;;;;;;;;;;;;;;28.05;48.86;100763.53;21085024;28;20472;-58
2023/06/28 10:52:52;;;;;;;1.20;1.10;;;;;;;28.06;48.80;100768.00;21082382;28;19970;-59
2023/06/28 11:03:01;;;;;;;1.73;1.30;;;;;;;28.05;48.84;100780.41;21083299;28;20066;-58
2023/06/28 11:13:03;;;;;;;1.38;1.27;;;;;;;28.04;48.79;100793.66;21081513;28;20059;-58
2023/06/28 11:23:04;;;;;;;1.25;1.15;;;;;;;28.04;48.85;100798.44;21081298;28;21125;-58
2023/06/28 11:33:06;;;;;;;2.03;1.33;;;;;;;28.01;48.73;100799.13;21080602;28;20032;-58
2023/06/28 11:43:08;;;;;;;2.00;1.58;;;;;;;28.03;48.95;100816.47;21079900;28;20544;-58
2023/06/28 11:53:09;;;;;;;1.45;1.30;;;;;;;28.03;48.78;100830.53;21079200;28;20615;-58
2023/06/28 12:03:10;;;;;;;1.30;1.13;;;;;;;28.01;48.75;100844.13;21078647;28;20043;-57
2023/06/28 12:13:22;;;;;;;1.27;1.17;;;;;;;27.97;48.92;100854.38;21077525;28;20376;-59
2023/06/28 12:23:23;;;;;;;1.58;1.48;;;;;;;28.00;48.85;100876.22;21077463;28;20097;-59
2023/06/28 12:33:27;;;;;;;1.55;1.45;;;;;;;27.92;48.90;100877.03;21075808;28;20047;-59
2023/06/28 12:43:31;;;;;;;1.60;1.50;;;;;;;28.00;48.70;100893.09;21075889;28;20036;-59
2023/06/28 12:53:33;;;;;;;1.42;1.33;;;;;;;27.99;48.85;100891.41;21074900;28;20395;-59
2023/06/28 13:03:34;;;;;;;1.75;1.40;;;;;;;27.99;48.64;100888.59;21075478;28;20063;-59
2023/06/28 13:13:35;;;;;;;1.45;1.35;;;;;;;27.98;48.78;100896.22;21074776;28;20040;-59
2023/06/28 13:23:37;;;;;;;1.95;1.77;;;;;;;27.99;48.62;100883.81;21074453;28;20047;-57
2023/06/28 13:33:38;;;;;;;2.05;1.85;;;;;;;27.96;48.58;100892.94;21074787;28;20044;-58
2023/06/28 13:43:40;;;;;;;1.67;1.45;;;;;;;27.97;48.98;100893.75;21074178;28;20097;-58
2023/06/28 13:53:41;;;;;;;2.13;1.70;;;;;;;27.98;48.66;100901.84;21087455;28;20082;-58
2023/06/28 14:03:42;;;;;;;2.05;1.83;;;;;;;27.99;48.88;100891.41;21087830;28;20024;-59
2023/06/28 14:13:44;;;;;;;2.33;2.13;;;;;;;27.98;48.76;100901.03;21086049;28;20048;-58
2023/06/28 14:23:50;;;;;;;2.28;2.08;;;;;;;27.98;48.67;100884.16;21086232;28;20044;-59
2023/06/28 14:33:52;;;;;;;2.80;2.55;;;;;;;27.99;48.80;100899.84;21084975;28;20052;-58
2023/06/28 14:43:53;;;;;;;3.63;2.83;;;;;;;27.88;48.55;100879.69;21084711;28;20105;-59
2023/06/28 14:53:55;;;;;;;3.47;3.13;;;;;;;27.97;48.91;100899.38;21083703;28;20109;-59
2023/06/28 15:04:02;;;;;;;4.63;3.47;;;;;;;27.99;48.66;100913.94;21082047;28;20076;-58
2023/06/28 15:14:06;;;;;;;;;;;;;;;27.97;48.39;100916.25;21081964;28;20441;-59
2023/06/28 15:24:07;;;;;;;4.30;3.63;;;;;;;27.97;48.90;100905.81;21081715;28;20291;-58
2023/06/28 15:34:08;;;;;;;7.55;6.07;;;;;;;27.98;48.56;100906.66;21080631;28;20047;-60
2023/06/28 15:44:12;;;;;;;8.18;6.40;;;;;;;27.96;48.57;100909.81;21080165;28;20040;-59
2023/06/28 15:54:17;;;;;;;7.88;5.95;;;;;;;27.91;48.55;100887.47;21078644;28;20441;-57
2023/06/28 16:04:18;;;;;;;7.10;5.30;;;;;;;27.97;48.64;100899.38;21076308;28;20383;-58
2023/06/28 16:14:19;;;;;;;7.82;5.95;;;;;;;27.95;48.44;100912.94;21072878;28;20398;-59
2023/06/28 16:24:21;;;;;;;7.22;6.15;;;;;;;27.97;48.62;100905.00;21074584;28;20440;-60
2023/06/28 16:34:22;;;;;;;8.00;6.13;;;;;;;27.97;48.49;100916.25;21072799;28;20036;-59
2023/06/28 16:44:23;;;;;;;9.00;7.40;;;;;;;27.97;48.73;100924.69;21073529;28;20089;-59
2023/06/28 16:54:25;;;;;;;8.57;7.22;;;;;;;27.96;48.90;100932.31;21072472;28;20039;-58
2023/06/28 17:04:27;;;;;;;8.68;7.05;;;;;;;27.94;48.67;100922.53;21070027;28;20036;-59
2023/06/28 17:14:28;;;;;;;8.30;7.05;;;;;;;27.97;48.58;100910.63;21068259;28;20125;-59
2023/06/28 17:24:32;;;;;;;9.55;7.63;;;;;;;27.95;48.75;100918.56;21083522;28;20552;-59
2023/06/28 17:34:34;;;;;;;11.23;8.63;;;;;;;27.96;48.44;100911.78;21076513;28;20121;-58
2023/06/28 17:44:35;;;;;;;14.70;11.55;;;;;;;27.85;48.33;100908.44;21027455;28;20044;-59
2023/06/28 17:54:37;;;;;;;13.23;9.93;;;;;;;27.95;48.55;100925.03;21056468;28;20044;-59
2023/06/28 18:04:38;;;;;;;16.83;12.55;;;;;;;27.97;48.26;100919.06;21086405;28;20092;-58
2023/06/28 18:14:40;;;;;;;16.63;13.02;;;;;;;27.79;48.37;100881.66;21086187;28;20040;-59
2023/06/28 18:24:41;;;;;;;15.93;12.20;;;;;;;27.91;48.46;100906.34;21086023;28;20043;-60
2023/06/28 18:34:42;;;;;;;18.05;12.38;;;;;;;27.91;48.60;100906.34;21083747;28;20044;-59
2023/06/28 18:44:44;;;;;;;17.92;12.63;;;;;;;27.98;48.56;100912.28;21067926;28;20036;-59
2023/06/28 18:54:45;;;;;;;20.25;14.48;;;;;;;27.83;48.85;100886.28;21069599;28;20044;-58
2023/06/28 19:04:46;;;;;;;17.90;13.63;;;;;;;27.99;48.47;100902.66;21051703;28;20125;-59
2023/06/28 19:14:48;;;;;;;20.83;14.55;;;;;;;27.98;48.64;100901.03;21060572;28;20556;-59
2023/06/28 19:24:49;;;;;;;19.20;14.25;;;;;;;28.00;48.68;100893.94;21079644;28;20482;-60
2023/06/28 19:34:51;;;;;;;27.48;15.02;;;;;;;28.01;48.90;100906.00;21080053;28;20401;-59
2023/06/28 19:44:52;;;;;;;23.85;15.32;;;;;;;28.02;48.66;100925.34;21078840;28;20074;-59
2023/06/28 19:54:54;;;;;;;22.25;15.77;;;;;;;28.01;48.80;100923.69;21078815;28;20410;-58
2023/06/28 20:04:55;;;;;;;24.60;16.10;;;;;;;28.04;48.54;100919.38;21078051;28;20044;-60
2023/06/28 20:14:59;;;;;;;29.98;18.88;;;;;;;28.04;48.68;100922.19;21076118;28;20052;-59
2023/06/28 20:25:05;;;;;;;30.88;18.77;;;;;;;27.98;48.14;100906.66;21045834;28;20074;-59
2023/06/28 20:35:12;;;;;;;;;;;;;;;28.05;48.72;100924.69;21070465;28;20098;-59
2023/06/28 20:45:14;;;;;;;26.77;20.02;;;;;;;28.10;48.47;100910.47;21072900;28;19920;-59
2023/06/28 20:55:15;;;;;;;29.25;21.35;;;;;;;28.10;48.47;100930.16;21052422;28;20048;-59
2023/06/28 21:05:16;;;;;;;27.77;20.50;;;;;;;27.94;49.02;100900.03;21038844;28;20044;-59
2023/06/28 21:15:18;;;;;;;33.88;22.92;;;;;;;28.08;49.04;100928.81;21086616;28;20040;-58
2023/06/28 21:25:19;;;;;;;99.95;30.27;;;;;;;28.09;49.02;100931.31;21087860;28;20051;-58
2023/06/28 21:35:23;;;;;;;169.02;39.75;;;;;;;28.11;48.90;100933.78;21088229;28;20040;-60
2023/06/28 21:45:24;;;;;;;132.85;34.72;;;;;;;28.09;49.06;100941.75;21088998;28;20101;-57
2023/06/28 21:55:25;;;;;;;90.93;32.08;;;;;;;28.08;49.18;100948.50;21088202;28;20036;-58
2023/06/28 22:05:27;;;;;;;88.60;31.77;;;;;;;28.06;49.20;100939.59;21084240;28;20036;-59
2023/06/28 22:15:32;;;;;;;72.47;28.08;;;;;;;28.12;49.12;100955.13;21086430;28;20051;-59
2023/06/28 22:25:37;;;;;;;63.38;27.77;;;;;;;28.14;49.08;100961.28;21084395;28;20120;-58
2023/06/28 22:35:38;;;;;;;125.55;35.42;;;;;;;28.15;49.23;100962.09;21085137;28;20044;-60
2023/06/28 22:45:40;;;;;;;96.28;30.80;;;;;;;28.16;49.30;100975.84;21084017;28;20104;-58
2023/06/28 22:55:41;;;;;;;81.72;27.98;;;;;;;28.11;49.32;100978.81;21061052;28;20052;-58
2023/06/28 23:05:44;;;;;;;91.90;26.38;;;;;;;28.17;49.16;100994.38;20997390;28;20040;-58
2023/06/28 23:15:47;;;;;;;66.60;24.48;;;;;;;28.18;49.28;101007.28;21018702;28;20040;-58
2023/06/28 23:25:50;;;;;;;70.93;25.75;;;;;;;28.20;49.38;101021.84;21077822;28;20455;-57
2023/06/28 23:35:51;;;;;;;54.13;22.35;;;;;;;28.18;49.28;101041.06;21066232;28;20040;-58
2023/06/28 23:45:53;;;;;;;40.22;21.40;;;;;;;28.20;49.31;101044.34;21079826;28;20089;-58
2023/06/28 23:55:54;;;;;;;38.67;21.58;;;;;;;28.20;49.38;101069.69;21079414;28;20044;-59
